Airfield :
LOGIN :

Register | Disclaimer

   EN    FR    IT 

 










Legend :    VFR   Marginal VFR   IFR   Intensive IFR   Very Intensive IFR
Visi :
Ceiling :
>= 8 km
>= 3000ft
5 to 8 km
1000 to 3000 ft
1500m to 5 km
500 to 1000 ft
800 to 1500m
200 to 500 ft
< 800m
< 200 ft
Symbols :   Thunderstorms  Fog  Heavy snow  Heavy precipitations  Wind > 20 kt
SIGMETs :     Misc.  Thunderstorms  Icing  Turbulence  Mountain Waves  Volcanic Ashes






- Airport Elevation : 682 ft
- IATA code : VTB


UMII - Vitebsk

CURRENT METAR :
  • 251227Z 13004G07MPS 0700 DZ FG VV002 03/02 Q1001 R23/290062 TEMPO 0500 RMK QBB070

EXPIRED METARs :
  • 251215Z 13004G07MPS 0900 DZ FG VV002 03/02 Q1001 R23/290062 TEMPO 0700 RMK QBB070
  • 251200Z 13004G07MPS 1700 DZ BR OVC002 03/02 Q1001 R23/290062 TEMPO 1300 RMK QBB070
  • 251148Z 13004G07MPS 3200 -DZ BR OVC003 03/02 Q1002 R23/290062 TEMPO 2100 BKN002 RMK QBB090
  • 251131Z 13005MPS 6000 OVC004 03/02 Q1002 R23/290062 TEMPO 2000 DZ BR BKN003 RMK QBB120
  • 251100Z 13005MPS 3300 -DZ BR OVC003 03/02 Q1002 R23/290062 TEMPO 2100 BKN002 RMK QBB110
  • 251030Z 15003MPS 2700 -DZ BR OVC003 03/02 Q1002 R23/290062 TEMPO 2100 BKN002 RMK QBB100
  • 251018Z 15003MPS 2900 -DZ BR OVC003 03/02 Q1002 R23/290062 TEMPO 2100 BKN002 RMK QBB100
  • 251000Z 15003MPS 4100 -DZ BR OVC004 03/02 Q1002 R23/290062 TEMPO 2100 BKN003 RMK QBB140

TAF TAF UMII
Valid from the 25 at 12:00 until the 25 at 21:00 UTC


251112Z 2512/2521 14005MPS 2000 DZ BR OVC004
TEMPO 2512/2521 16005G10MPS 0300 -SHRA FG BKN002 BKN010CB



MET'MAP, your aeronautical weather chart ! - Copyright ORBIFLY December 2007 - Disclaimer

ORBIFLY MET'MAP TEAM :

Programming & Development : Alexandra Zaïnal
Concept & original design : Baudouin d'Aumeries
Assistance for programming : Marc-Olivier Méhu
Technical & hardware support : Manuel Goepfert

Contact : metmap@orbifly.com




SOURCES & CREDITS :

   NOAA